Weather reports worldwide

Advertisment
Karlsruhe/Baden-Baden, Germany (10722): temperature & dewpoint: 02.07.2020 16:00:00 - 08.07.2020 16:00:00 (CEST)Karlsruhe/Baden-Baden, Germany (10722): wind speed: 02.07.2020 16:00:00 - 08.07.2020 16:00:00 (CEST)Karlsruhe/Baden-Baden, Germany (10722): wind direction: 02.07.2020 16:00:00 - 08.07.2020 16:00:00 (CEST)Karlsruhe/Baden-Baden, Germany (10722): visibility: 02.07.2020 16:00:00 - 08.07.2020 16:00:00 (CEST)
Date & Time tt [°C] td [°C] ff [km/h] ff [kn] dd vv [km]
08.07.2020 16:00:00 - - - - - -
08.07.2020 15:00:00 27,0 10,0 13 7 W 10
08.07.2020 14:00:00 25,0 10,0 9 5 WSW 10
08.07.2020 13:00:00 25,0 11,0 15 8 WSW 10
08.07.2020 12:00:00 24,0 9,0 15 8 SW 10
08.07.2020 11:00:00 22,0 9,0 18 10 SSW 10
08.07.2020 10:00:00 20,0 10,0 13 7 SW 10
08.07.2020 09:00:00 17,0 10,0 15 8 SSW 10
08.07.2020 08:00:00 15,0 9,0 9 5 SW 10
08.07.2020 07:00:00 12,0 9,0 8 4 SSW 10
08.07.2020 06:00:00 10,0 8,0 11 6 SSW 10
08.07.2020 05:00:00 11,0 8,0 5 3 WSW 10
08.07.2020 04:00:00 11,0 8,0 5 3 SSW 10
08.07.2020 03:00:00 12,0 9,0 9 5 SSW 10
08.07.2020 02:00:00 12,0 9,0 5 3 SSW 10
08.07.2020 01:00:00 13,0 9,0 8 4 SW 10
08.07.2020 00:00:00 15,0 8,0 5 3 SSW 10
07.07.2020 23:00:00 17,0 8,0 2 1 - 10
07.07.2020 22:00:00 19,0 8,0 4 2 W 10
07.07.2020 21:00:00 22,0 8,0 2 1 - 10
07.07.2020 20:00:00 23,0 7,0 5 3 ESE 10
07.07.2020 19:00:00 24,0 6,0 5 3 W 10
07.07.2020 18:00:00 24,0 7,0 5 3 SW 10
07.07.2020 17:00:00 23,0 6,0 9 5 N 10
07.07.2020 16:00:00 23,0 5,0 5 3 - 10
07.07.2020 15:00:00 22,0 6,0 8 4 - 10
07.07.2020 14:00:00 21,0 5,0 8 4 - 10
07.07.2020 13:00:00 21,0 5,0 9 5 - 10
07.07.2020 12:00:00 20,0 7,0 4 2 - 10
07.07.2020 11:00:00 19,0 10,0 4 2 - 10
07.07.2020 10:00:00 17,0 9,0 5 3 NW 10
07.07.2020 09:00:00 16,0 10,0 2 1 - 10
07.07.2020 08:00:00 13,0 9,0 0 0 N 10
07.07.2020 07:00:00 10,0 8,0 0 0 N 10
07.07.2020 06:00:00 8,0 7,0 0 0 N 10
07.07.2020 05:00:00 8,0 7,0 4 2 - 10
07.07.2020 04:00:00 8,0 7,0 0 0 N 10
07.07.2020 03:00:00 11,0 8,0 5 3 S 10
07.07.2020 02:00:00 9,0 8,0 5 3 SSW 10
07.07.2020 01:00:00 11,0 9,0 5 3 SSW 10
07.07.2020 00:00:00 12,0 8,0 4 2 SSW 10
06.07.2020 23:00:00 14,0 8,0 2 1 - 10
06.07.2020 22:00:00 18,0 8,0 4 2 W 10
06.07.2020 21:00:00 18,0 7,0 4 2 - 10
06.07.2020 20:00:00 21,0 7,0 9 5 W 10
06.07.2020 19:00:00 21,0 6,0 15 8 WNW 10
06.07.2020 18:00:00 21,0 6,0 13 7 W 10
06.07.2020 17:00:00 22,0 6,0 13 7 WNW 10
06.07.2020 16:00:00 20,0 6,0 13 7 WNW 10
06.07.2020 15:00:00 20,0 7,0 18 10 WNW 10
06.07.2020 14:00:00 20,0 7,0 18 10 W 10
06.07.2020 13:00:00 20,0 8,0 16 9 W 10
06.07.2020 12:00:00 19,0 7,0 13 7 W 10
06.07.2020 11:00:00 18,0 8,0 11 6 W 10
06.07.2020 10:00:00 17,0 9,0 15 8 WSW 10
06.07.2020 09:00:00 16,0 9,0 16 9 WSW 10
06.07.2020 08:00:00 16,0 9,0 13 7 WSW 10
06.07.2020 07:00:00 17,0 10,0 15 8 W 10
06.07.2020 06:00:00 18,0 14,0 13 7 W 10
06.07.2020 05:00:00 19,0 16,0 13 7 W 10
06.07.2020 04:00:00 20,0 17,0 11 6 WSW 10
06.07.2020 03:00:00 23,0 16,0 13 7 W 10
06.07.2020 02:00:00 24,0 15,0 18 10 SSW 10
06.07.2020 01:00:00 23,0 15,0 13 7 SSW 10
06.07.2020 00:00:00 22,0 15,0 11 6 SSW 10
05.07.2020 23:00:00 24,0 15,0 11 6 SW 10
05.07.2020 22:00:00 25,0 15,0 11 6 W 10
05.07.2020 21:00:00 27,0 16,0 9 5 W 10
05.07.2020 20:00:00 28,0 17,0 11 6 W 10
05.07.2020 19:00:00 29,0 16,0 11 6 W 10
05.07.2020 18:00:00 29,0 17,0 13 7 W 10
05.07.2020 17:00:00 29,0 17,0 11 6 W 10
05.07.2020 16:00:00 29,0 18,0 24 13 SW 10
05.07.2020 15:00:00 26,0 17,0 22 12 SSW 10
05.07.2020 14:00:00 25,0 17,0 13 7 SW 10
05.07.2020 13:00:00 24,0 16,0 15 8 SW 10
05.07.2020 12:00:00 24,0 16,0 26 14 SSW 10
05.07.2020 11:00:00 23,0 15,0 29 16 SSW 10
05.07.2020 10:00:00 23,0 15,0 26 14 SSW 10
05.07.2020 09:00:00 22,0 14,0 21 11 SSW 10
05.07.2020 08:00:00 21,0 13,0 16 9 SW 10
05.07.2020 07:00:00 21,0 13,0 18 10 SW 10
05.07.2020 06:00:00 21,0 13,0 21 11 SSW 10
05.07.2020 05:00:00 21,0 12,0 21 11 SSW 10
05.07.2020 04:00:00 22,0 12,0 15 8 SSW 10
05.07.2020 03:00:00 22,0 12,0 16 9 SSW 10
05.07.2020 02:00:00 22,0 12,0 21 11 SSW 10
05.07.2020 01:00:00 22,0 13,0 15 8 SSW 10
05.07.2020 00:00:00 23,0 13,0 16 9 SSW 10
04.07.2020 23:00:00 23,0 12,0 9 5 SW 10
04.07.2020 22:00:00 24,0 13,0 9 5 SW 10
04.07.2020 21:00:00 24,0 13,0 9 5 SW 10
04.07.2020 20:00:00 25,0 12,0 9 5 WSW 10
04.07.2020 19:00:00 26,0 10,0 9 5 W 10
04.07.2020 18:00:00 28,0 11,0 13 7 WSW 10
04.07.2020 17:00:00 27,0 11,0 16 9 SSW 10
04.07.2020 16:00:00 27,0 12,0 21 11 SW 10
04.07.2020 15:00:00 27,0 11,0 21 11 SW 10
04.07.2020 14:00:00 26,0 11,0 18 10 SW 10
04.07.2020 13:00:00 24,0 10,0 21 11 SW 10
04.07.2020 12:00:00 23,0 10,0 21 11 WSW 10
04.07.2020 11:00:00 23,0 11,0 15 8 SSW 10
04.07.2020 10:00:00 20,0 12,0 13 7 SSW 10
04.07.2020 09:00:00 18,0 12,0 15 8 SSW 10
04.07.2020 08:00:00 16,0 12,0 11 6 SSW 10
04.07.2020 07:00:00 13,0 11,0 8 4 SSW 10
04.07.2020 06:00:00 12,0 11,0 9 5 SSW 10
04.07.2020 05:00:00 12,0 11,0 8 4 SSW 10
04.07.2020 04:00:00 12,0 10,0 5 3 SSW 10
04.07.2020 03:00:00 13,0 11,0 5 3 SSW 10
04.07.2020 02:00:00 13,0 11,0 4 2 S 10
04.07.2020 01:00:00 14,0 11,0 9 5 SSW 10
04.07.2020 00:00:00 16,0 11,0 8 4 SSW 10
03.07.2020 23:00:00 17,0 11,0 8 4 SSW 10
03.07.2020 22:00:00 20,0 10,0 5 3 WSW 10
03.07.2020 21:00:00 23,0 10,0 4 2 - 10
03.07.2020 20:00:00 24,0 9,0 5 3 WNW 10
03.07.2020 19:00:00 24,0 9,0 8 4 WSW 10
03.07.2020 18:00:00 25,0 9,0 5 3 WNW 10
03.07.2020 17:00:00 24,0 10,0 9 5 W 10
03.07.2020 16:00:00 24,0 9,0 9 5 W 10
03.07.2020 15:00:00 24,0 10,0 11 6 W 10
03.07.2020 14:00:00 24,0 10,0 9 5 NW 10
03.07.2020 13:00:00 22,0 10,0 11 6 WSW 10
03.07.2020 12:00:00 21,0 10,0 11 6 WSW 10
03.07.2020 11:00:00 20,0 11,0 9 5 WSW 10
03.07.2020 10:00:00 20,0 12,0 8 4 - 10
03.07.2020 09:00:00 18,0 12,0 8 4 WSW 10
03.07.2020 08:00:00 18,0 13,0 8 4 WSW 10
03.07.2020 07:00:00 14,0 12,0 8 4 SSW 10
03.07.2020 06:00:00 14,0 12,0 5 3 SSW 10
03.07.2020 05:00:00 14,0 12,0 5 3 SSW 10
03.07.2020 04:00:00 14,0 13,0 8 4 SSW 10
03.07.2020 03:00:00 16,0 13,0 8 4 SW 10
03.07.2020 02:00:00 18,0 12,0 8 4 SW 10
03.07.2020 01:00:00 18,0 13,0 8 4 SW 10
03.07.2020 00:00:00 19,0 12,0 8 4 WSW 10
02.07.2020 23:00:00 19,0 12,0 8 4 W 10
02.07.2020 22:00:00 20,0 12,0 5 3 WNW 10
02.07.2020 21:00:00 21,0 11,0 9 5 W 10
02.07.2020 20:00:00 23,0 10,0 11 6 WSW 10
02.07.2020 19:00:00 24,0 10,0 15 8 W 10
02.07.2020 18:00:00 25,0 11,0 15 8 W 10
02.07.2020 17:00:00 23,0 12,0 11 6 W 10
02.07.2020 16:00:00 24,0 13,0 13 7 WSW 10

tt = temperature
td = dewpoint
ff = wind speed
dd = wind direction
vv = visibility

Next stations